sensor_id;sensor_type;location;lat;lon;timestamp;temperature;humidity
16273;DHT22;8244;50.044;9.006;2022-09-03T00:01:35;17.80;79.20
16273;DHT22;8244;50.044;9.006;2022-09-03T00:06:41;17.80;79.50
16273;DHT22;8244;50.044;9.006;2022-09-03T00:11:51;17.70;79.70
16273;DHT22;8244;50.044;9.006;2022-09-03T00:16:59;17.70;79.90
16273;DHT22;8244;50.044;9.006;2022-09-03T00:22:08;17.60;80.00
16273;DHT22;8244;50.044;9.006;2022-09-03T00:27:16;17.60;80.20
16273;DHT22;8244;50.044;9.006;2022-09-03T00:32:23;17.50;80.60
16273;DHT22;8244;50.044;9.006;2022-09-03T00:37:27;17.50;80.80
16273;DHT22;8244;50.044;9.006;2022-09-03T00:42:38;17.60;80.80
16273;DHT22;8244;50.044;9.006;2022-09-03T00:47:51;17.60;80.90
16273;DHT22;8244;50.044;9.006;2022-09-03T00:53:00;17.60;80.90
16273;DHT22;8244;50.044;9.006;2022-09-03T00:58:38;17.60;81.00
16273;DHT22;8244;50.044;9.006;2022-09-03T01:03:52;17.60;81.00
16273;DHT22;8244;50.044;9.006;2022-09-03T01:09:06;17.60;81.40
16273;DHT22;8244;50.044;9.006;2022-09-03T01:14:24;17.60;81.50
16273;DHT22;8244;50.044;9.006;2022-09-03T01:19:55;17.60;82.00
16273;DHT22;8244;50.044;9.006;2022-09-03T01:25:14;17.60;82.10
16273;DHT22;8244;50.044;9.006;2022-09-03T01:30:20;17.60;82.30
16273;DHT22;8244;50.044;9.006;2022-09-03T01:35:28;17.60;82.60
16273;DHT22;8244;50.044;9.006;2022-09-03T01:40:36;17.50;82.80
16273;DHT22;8244;50.044;9.006;2022-09-03T01:45:50;17.50;83.00
16273;DHT22;8244;50.044;9.006;2022-09-03T01:50:56;17.50;83.20
16273;DHT22;8244;50.044;9.006;2022-09-03T01:56:09;17.50;83.30
16273;DHT22;8244;50.044;9.006;2022-09-03T02:01:21;17.50;83.50
16273;DHT22;8244;50.044;9.006;2022-09-03T02:06:28;17.50;83.70
16273;DHT22;8244;50.044;9.006;2022-09-03T02:11:31;17.50;83.90
16273;DHT22;8244;50.044;9.006;2022-09-03T02:16:34;17.50;84.00
16273;DHT22;8244;50.044;9.006;2022-09-03T02:21:38;17.50;84.00
16273;DHT22;8244;50.044;9.006;2022-09-03T02:26:40;17.40;84.10
16273;DHT22;8244;50.044;9.006;2022-09-03T02:31:43;17.40;84.40
16273;DHT22;8244;50.044;9.006;2022-09-03T02:36:46;17.40;84.40
16273;DHT22;8244;50.044;9.006;2022-09-03T02:41:50;17.40;84.50
16273;DHT22;8244;50.044;9.006;2022-09-03T02:46:58;17.30;84.60
16273;DHT22;8244;50.044;9.006;2022-09-03T02:52:02;17.40;84.70
16273;DHT22;8244;50.044;9.006;2022-09-03T02:57:06;17.40;84.80
16273;DHT22;8244;50.044;9.006;2022-09-03T03:02:10;17.40;84.90
16273;DHT22;8244;50.044;9.006;2022-09-03T03:07:11;17.40;85.00
16273;DHT22;8244;50.044;9.006;2022-09-03T03:12:13;17.40;85.20
16273;DHT22;8244;50.044;9.006;2022-09-03T03:17:18;17.40;85.20
16273;DHT22;8244;50.044;9.006;2022-09-03T03:22:19;17.40;85.30
16273;DHT22;8244;50.044;9.006;2022-09-03T03:27:21;17.40;85.20
16273;DHT22;8244;50.044;9.006;2022-09-03T03:32:26;17.40;85.10
16273;DHT22;8244;50.044;9.006;2022-09-03T03:37:27;17.40;85.20
16273;DHT22;8244;50.044;9.006;2022-09-03T03:42:31;17.50;85.30
16273;DHT22;8244;50.044;9.006;2022-09-03T03:47:35;17.50;85.30
16273;DHT22;8244;50.044;9.006;2022-09-03T03:52:37;17.50;85.40
16273;DHT22;8244;50.044;9.006;2022-09-03T03:57:38;17.50;85.50
16273;DHT22;8244;50.044;9.006;2022-09-03T04:02:42;17.50;85.70
16273;DHT22;8244;50.044;9.006;2022-09-03T04:07:44;17.50;85.80
16273;DHT22;8244;50.044;9.006;2022-09-03T04:12:45;17.50;85.80
16273;DHT22;8244;50.044;9.006;2022-09-03T04:17:48;17.50;86.00
16273;DHT22;8244;50.044;9.006;2022-09-03T04:22:50;17.50;86.10
16273;DHT22;8244;50.044;9.006;2022-09-03T04:27:52;17.50;86.20
16273;DHT22;8244;50.044;9.006;2022-09-03T04:32:55;17.40;86.00
16273;DHT22;8244;50.044;9.006;2022-09-03T04:37:57;17.40;86.30
16273;DHT22;8244;50.044;9.006;2022-09-03T04:42:59;17.30;86.60
16273;DHT22;8244;50.044;9.006;2022-09-03T04:48:03;17.30;87.10
16273;DHT22;8244;50.044;9.006;2022-09-03T04:53:05;17.20;87.60
16273;DHT22;8244;50.044;9.006;2022-09-03T04:58:07;17.20;88.10
16273;DHT22;8244;50.044;9.006;2022-09-03T05:03:10;17.10;88.40
16273;DHT22;8244;50.044;9.006;2022-09-03T05:08:12;17.10;88.50
16273;DHT22;8244;50.044;9.006;2022-09-03T05:13:14;17.10;88.80
16273;DHT22;8244;50.044;9.006;2022-09-03T05:18:18;17.10;89.00
16273;DHT22;8244;50.044;9.006;2022-09-03T05:23:20;17.10;89.50
16273;DHT22;8244;50.044;9.006;2022-09-03T05:28:22;17.10;89.60
16273;DHT22;8244;50.044;9.006;2022-09-03T05:33:25;17.10;89.80
16273;DHT22;8244;50.044;9.006;2022-09-03T05:38:27;17.10;89.80
16273;DHT22;8244;50.044;9.006;2022-09-03T05:43:30;17.10;89.90
16273;DHT22;8244;50.044;9.006;2022-09-03T05:48:35;17.20;89.90
16273;DHT22;8244;50.044;9.006;2022-09-03T05:53:39;17.20;89.70
16273;DHT22;8244;50.044;9.006;2022-09-03T05:58:42;17.30;89.50
16273;DHT22;8244;50.044;9.006;2022-09-03T06:03:47;17.30;89.40
16273;DHT22;8244;50.044;9.006;2022-09-03T06:08:49;17.30;89.50
16273;DHT22;8244;50.044;9.006;2022-09-03T06:13:51;17.30;89.50
16273;DHT22;8244;50.044;9.006;2022-09-03T06:18:54;17.30;89.90
16273;DHT22;8244;50.044;9.006;2022-09-03T06:23:56;17.40;89.60
16273;DHT22;8244;50.044;9.006;2022-09-03T06:28:58;17.40;89.70
16273;DHT22;8244;50.044;9.006;2022-09-03T06:34:01;17.40;89.70
16273;DHT22;8244;50.044;9.006;2022-09-03T06:39:03;17.40;89.80
16273;DHT22;8244;50.044;9.006;2022-09-03T06:44:06;17.40;89.80
16273;DHT22;8244;50.044;9.006;2022-09-03T06:49:12;17.50;89.80
16273;DHT22;8244;50.044;9.006;2022-09-03T06:54:14;17.50;90.00
16273;DHT22;8244;50.044;9.006;2022-09-03T06:59:16;17.60;89.90
16273;DHT22;8244;50.044;9.006;2022-09-03T07:04:19;17.60;90.00
16273;DHT22;8244;50.044;9.006;2022-09-03T07:09:24;17.60;92.50
16273;DHT22;8244;50.044;9.006;2022-09-03T07:14:26;17.50;95.10
16273;DHT22;8244;50.044;9.006;2022-09-03T07:19:29;17.50;96.40
16273;DHT22;8244;50.044;9.006;2022-09-03T07:24:34;17.50;98.20
16273;DHT22;8244;50.044;9.006;2022-09-03T07:29:37;17.50;99.90
16273;DHT22;8244;50.044;9.006;2022-09-03T07:34:40;17.50;99.90
16273;DHT22;8244;50.044;9.006;2022-09-03T07:39:41;17.50;99.90
16273;DHT22;8244;50.044;9.006;2022-09-03T07:44:43;17.60;99.90
16273;DHT22;8244;50.044;9.006;2022-09-03T07:49:46;17.50;99.90
16273;DHT22;8244;50.044;9.006;2022-09-03T07:54:48;17.50;99.90
16273;DHT22;8244;50.044;9.006;2022-09-03T07:59:50;17.60;99.90
16273;DHT22;8244;50.044;9.006;2022-09-03T08:04:53;17.90;99.90
16273;DHT22;8244;50.044;9.006;2022-09-03T08:10:03;18.20;99.90
16273;DHT22;8244;50.044;9.006;2022-09-03T08:15:06;18.40;99.90
16273;DHT22;8244;50.044;9.006;2022-09-03T08:20:10;18.70;99.90
16273;DHT22;8244;50.044;9.006;2022-09-03T08:25:12;19.00;99.90
16273;DHT22;8244;50.044;9.006;2022-09-03T08:30:14;19.20;99.90
16273;DHT22;8244;50.044;9.006;2022-09-03T08:35:18;19.20;99.90
16273;DHT22;8244;50.044;9.006;2022-09-03T08:40:20;19.10;99.90
16273;DHT22;8244;50.044;9.006;2022-09-03T08:45:25;19.10;99.90
16273;DHT22;8244;50.044;9.006;2022-09-03T08:50:33;19.10;99.90
16273;DHT22;8244;50.044;9.006;2022-09-03T08:55:49;19.20;99.60
16273;DHT22;8244;50.044;9.006;2022-09-03T09:00:56;19.20;99.90
16273;DHT22;8244;50.044;9.006;2022-09-03T09:06:17;19.40;99.80
16273;DHT22;8244;50.044;9.006;2022-09-03T09:11:28;19.70;99.40
16273;DHT22;8244;50.044;9.006;2022-09-03T09:16:39;20.20;99.90
16273;DHT22;8244;50.044;9.006;2022-09-03T09:21:50;21.20;99.20
16273;DHT22;8244;50.044;9.006;2022-09-03T09:26:57;21.80;94.10
16273;DHT22;8244;50.044;9.006;2022-09-03T09:31:59;22.20;93.20
16273;DHT22;8244;50.044;9.006;2022-09-03T09:37:07;22.70;91.90
16273;DHT22;8244;50.044;9.006;2022-09-03T09:42:10;22.90;91.20
16273;DHT22;8244;50.044;9.006;2022-09-03T09:47:15;23.10;90.70
16273;DHT22;8244;50.044;9.006;2022-09-03T09:52:23;23.30;90.00
16273;DHT22;8244;50.044;9.006;2022-09-03T09:57:27;23.50;89.10
16273;DHT22;8244;50.044;9.006;2022-09-03T10:02:29;23.80;90.20
16273;DHT22;8244;50.044;9.006;2022-09-03T10:07:36;24.00;88.00
16273;DHT22;8244;50.044;9.006;2022-09-03T10:12:40;24.20;87.50
16273;DHT22;8244;50.044;9.006;2022-09-03T10:17:56;24.40;84.80
16273;DHT22;8244;50.044;9.006;2022-09-03T10:23:09;24.50;84.70
16273;DHT22;8244;50.044;9.006;2022-09-03T10:28:11;24.40;85.10
16273;DHT22;8244;50.044;9.006;2022-09-03T10:33:17;24.40;84.10
16273;DHT22;8244;50.044;9.006;2022-09-03T10:38:27;24.20;84.70
16273;DHT22;8244;50.044;9.006;2022-09-03T10:49:17;23.60;88.80
16273;DHT22;8244;50.044;9.006;2022-09-03T10:54:41;23.40;89.20
16273;DHT22;8244;50.044;9.006;2022-09-03T11:00:00;23.70;89.90
16273;DHT22;8244;50.044;9.006;2022-09-03T11:05:09;23.90;89.60
16273;DHT22;8244;50.044;9.006;2022-09-03T11:10:19;24.00;88.40
16273;DHT22;8244;50.044;9.006;2022-09-03T11:15:24;23.90;88.00
16273;DHT22;8244;50.044;9.006;2022-09-03T11:20:27;23.90;88.60
16273;DHT22;8244;50.044;9.006;2022-09-03T11:25:33;23.90;89.30
16273;DHT22;8244;50.044;9.006;2022-09-03T11:30:46;24.10;89.20
16273;DHT22;8244;50.044;9.006;2022-09-03T11:35:55;24.30;88.10
16273;DHT22;8244;50.044;9.006;2022-09-03T11:41:02;24.90;88.00
16273;DHT22;8244;50.044;9.006;2022-09-03T11:46:09;25.60;85.10
16273;DHT22;8244;50.044;9.006;2022-09-03T11:51:31;26.30;84.20
16273;DHT22;8244;50.044;9.006;2022-09-03T11:56:36;27.30;80.90
16273;DHT22;8244;50.044;9.006;2022-09-03T12:01:40;28.00;78.70
16273;DHT22;8244;50.044;9.006;2022-09-03T12:07:09;28.50;75.80
16273;DHT22;8244;50.044;9.006;2022-09-03T12:12:39;29.00;75.60
16273;DHT22;8244;50.044;9.006;2022-09-03T12:17:51;29.50;71.00
16273;DHT22;8244;50.044;9.006;2022-09-03T12:23:10;29.70;71.50
16273;DHT22;8244;50.044;9.006;2022-09-03T12:28:19;30.40;70.20
16273;DHT22;8244;50.044;9.006;2022-09-03T12:33:22;30.60;68.20
16273;DHT22;8244;50.044;9.006;2022-09-03T12:38:25;30.50;69.60
16273;DHT22;8244;50.044;9.006;2022-09-03T12:43:30;31.10;68.20
16273;DHT22;8244;50.044;9.006;2022-09-03T12:48:32;31.50;67.40
16273;DHT22;8244;50.044;9.006;2022-09-03T12:53:33;31.40;66.90
16273;DHT22;8244;50.044;9.006;2022-09-03T12:58:42;31.70;66.10
16273;DHT22;8244;50.044;9.006;2022-09-03T13:03:51;31.60;66.10
16273;DHT22;8244;50.044;9.006;2022-09-03T13:08:59;31.80;64.90
16273;DHT22;8244;50.044;9.006;2022-09-03T13:14:04;31.90;65.30
16273;DHT22;8244;50.044;9.006;2022-09-03T13:19:12;31.90;63.90
16273;DHT22;8244;50.044;9.006;2022-09-03T13:24:24;31.60;65.90
16273;DHT22;8244;50.044;9.006;2022-09-03T13:29:38;31.30;65.70
16273;DHT22;8244;50.044;9.006;2022-09-03T13:34:49;30.90;67.10
16273;DHT22;8244;50.044;9.006;2022-09-03T13:39:56;30.60;66.70
16273;DHT22;8244;50.044;9.006;2022-09-03T13:45:07;30.40;67.90
16273;DHT22;8244;50.044;9.006;2022-09-03T13:50:20;30.20;66.60
16273;DHT22;8244;50.044;9.006;2022-09-03T13:55:40;30.10;68.20
16273;DHT22;8244;50.044;9.006;2022-09-03T14:00:48;30.00;67.60
16273;DHT22;8244;50.044;9.006;2022-09-03T14:06:01;30.00;69.00
16273;DHT22;8244;50.044;9.006;2022-09-03T14:11:22;29.70;68.30
16273;DHT22;8244;50.044;9.006;2022-09-03T14:16:34;29.60;69.10
16273;DHT22;8244;50.044;9.006;2022-09-03T14:21:43;29.50;69.90
16273;DHT22;8244;50.044;9.006;2022-09-03T14:26:51;29.90;68.90
16273;DHT22;8244;50.044;9.006;2022-09-03T14:37:49;29.90;69.70
16273;DHT22;8244;50.044;9.006;2022-09-03T14:43:06;29.70;69.30
16273;DHT22;8244;50.044;9.006;2022-09-03T14:48:29;29.80;70.10
16273;DHT22;8244;50.044;9.006;2022-09-03T14:53:53;29.80;69.10
16273;DHT22;8244;50.044;9.006;2022-09-03T14:59:19;29.60;69.50
16273;DHT22;8244;50.044;9.006;2022-09-03T15:04:44;29.40;70.40
16273;DHT22;8244;50.044;9.006;2022-09-03T15:09:56;29.10;70.40
16273;DHT22;8244;50.044;9.006;2022-09-03T15:15:09;29.30;71.20
16273;DHT22;8244;50.044;9.006;2022-09-03T15:20:21;29.60;70.80
16273;DHT22;8244;50.044;9.006;2022-09-03T15:25:36;29.80;70.70
16273;DHT22;8244;50.044;9.006;2022-09-03T15:30:47;30.00;70.30
16273;DHT22;8244;50.044;9.006;2022-09-03T15:36:02;30.20;69.90
16273;DHT22;8244;50.044;9.006;2022-09-03T15:41:16;30.10;68.70
16273;DHT22;8244;50.044;9.006;2022-09-03T15:46:36;29.90;70.30
16273;DHT22;8244;50.044;9.006;2022-09-03T15:51:48;29.70;70.10
16273;DHT22;8244;50.044;9.006;2022-09-03T15:57:00;29.80;70.20
16273;DHT22;8244;50.044;9.006;2022-09-03T16:02:06;29.40;70.00
16273;DHT22;8244;50.044;9.006;2022-09-03T16:07:22;29.10;72.00
16273;DHT22;8244;50.044;9.006;2022-09-03T16:12:33;29.00;72.50
16273;DHT22;8244;50.044;9.006;2022-09-03T16:17:42;29.00;73.60
16273;DHT22;8244;50.044;9.006;2022-09-03T16:22:50;28.80;73.00
16273;DHT22;8244;50.044;9.006;2022-09-03T16:27:59;28.40;73.20
16273;DHT22;8244;50.044;9.006;2022-09-03T16:33:09;28.00;74.50
16273;DHT22;8244;50.044;9.006;2022-09-03T16:38:31;27.80;75.40
16273;DHT22;8244;50.044;9.006;2022-09-03T16:43:41;27.30;76.40
16273;DHT22;8244;50.044;9.006;2022-09-03T16:48:53;27.30;76.70
16273;DHT22;8244;50.044;9.006;2022-09-03T16:54:11;27.40;77.30
16273;DHT22;8244;50.044;9.006;2022-09-03T16:59:32;27.30;76.80
16273;DHT22;8244;50.044;9.006;2022-09-03T17:05:00;27.00;77.70
16273;DHT22;8244;50.044;9.006;2022-09-03T17:10:16;26.80;78.40
16273;DHT22;8244;50.044;9.006;2022-09-03T17:15:39;26.60;78.60
16273;DHT22;8244;50.044;9.006;2022-09-03T17:21:08;26.60;79.40
16273;DHT22;8244;50.044;9.006;2022-09-03T17:26:20;26.40;80.00
16273;DHT22;8244;50.044;9.006;2022-09-03T17:31:34;26.30;81.20
16273;DHT22;8244;50.044;9.006;2022-09-03T17:36:51;26.00;81.50
16273;DHT22;8244;50.044;9.006;2022-09-03T17:42:01;25.80;82.40
16273;DHT22;8244;50.044;9.006;2022-09-03T17:47:21;25.60;83.10
16273;DHT22;8244;50.044;9.006;2022-09-03T17:52:34;25.50;83.60
16273;DHT22;8244;50.044;9.006;2022-09-03T17:57:44;25.30;83.80
16273;DHT22;8244;50.044;9.006;2022-09-03T18:02:51;25.20;84.90
16273;DHT22;8244;50.044;9.006;2022-09-03T18:07:59;24.90;85.70
16273;DHT22;8244;50.044;9.006;2022-09-03T18:13:22;24.70;86.40
16273;DHT22;8244;50.044;9.006;2022-09-03T18:18:26;24.50;87.70
16273;DHT22;8244;50.044;9.006;2022-09-03T18:23:33;24.20;89.10
16273;DHT22;8244;50.044;9.006;2022-09-03T18:29:01;23.80;90.20
16273;DHT22;8244;50.044;9.006;2022-09-03T18:34:28;23.60;91.00
16273;DHT22;8244;50.044;9.006;2022-09-03T18:39:48;23.20;91.70
16273;DHT22;8244;50.044;9.006;2022-09-03T18:45:15;22.90;92.20
16273;DHT22;8244;50.044;9.006;2022-09-03T18:50:43;22.70;92.30
16273;DHT22;8244;50.044;9.006;2022-09-03T18:56:13;22.60;92.70
16273;DHT22;8244;50.044;9.006;2022-09-03T19:01:37;22.50;92.90
16273;DHT22;8244;50.044;9.006;2022-09-03T19:07:01;22.30;93.10
16273;DHT22;8244;50.044;9.006;2022-09-03T19:12:32;22.10;93.30
16273;DHT22;8244;50.044;9.006;2022-09-03T19:18:07;22.00;93.50
16273;DHT22;8244;50.044;9.006;2022-09-03T19:23:27;21.80;93.80
16273;DHT22;8244;50.044;9.006;2022-09-03T19:28:47;21.70;93.80
16273;DHT22;8244;50.044;9.006;2022-09-03T19:34:21;21.50;94.30
16273;DHT22;8244;50.044;9.006;2022-09-03T19:40:09;21.30;94.60
16273;DHT22;8244;50.044;9.006;2022-09-03T19:45:49;21.20;94.80
16273;DHT22;8244;50.044;9.006;2022-09-03T19:51:15;21.10;95.20
16273;DHT22;8244;50.044;9.006;2022-09-03T19:56:37;20.90;96.00
16273;DHT22;8244;50.044;9.006;2022-09-03T20:01:58;20.70;95.90
16273;DHT22;8244;50.044;9.006;2022-09-03T20:07:20;20.50;96.30
16273;DHT22;8244;50.044;9.006;2022-09-03T20:12:44;20.40;96.90
16273;DHT22;8244;50.044;9.006;2022-09-03T20:17:55;20.30;97.50
16273;DHT22;8244;50.044;9.006;2022-09-03T20:23:05;20.10;98.80
16273;DHT22;8244;50.044;9.006;2022-09-03T20:28:22;19.90;99.90
16273;DHT22;8244;50.044;9.006;2022-09-03T20:33:43;19.80;99.90
16273;DHT22;8244;50.044;9.006;2022-09-03T20:39:03;19.70;99.90
16273;DHT22;8244;50.044;9.006;2022-09-03T20:44:26;19.60;99.90
16273;DHT22;8244;50.044;9.006;2022-09-03T20:49:40;19.40;99.90
16273;DHT22;8244;50.044;9.006;2022-09-03T20:54:59;19.30;99.90
16273;DHT22;8244;50.044;9.006;2022-09-03T21:00:07;19.10;99.90
16273;DHT22;8244;50.044;9.006;2022-09-03T21:05:15;19.00;99.90
16273;DHT22;8244;50.044;9.006;2022-09-03T21:10:26;18.80;99.90
16273;DHT22;8244;50.044;9.006;2022-09-03T21:15:37;18.70;99.90
16273;DHT22;8244;50.044;9.006;2022-09-03T21:20:46;18.50;99.90
16273;DHT22;8244;50.044;9.006;2022-09-03T21:25:55;18.30;99.90
16273;DHT22;8244;50.044;9.006;2022-09-03T21:31:04;18.20;99.90
16273;DHT22;8244;50.044;9.006;2022-09-03T21:36:11;18.00;99.90
16273;DHT22;8244;50.044;9.006;2022-09-03T21:41:20;17.90;99.90
16273;DHT22;8244;50.044;9.006;2022-09-03T21:46:28;17.70;99.90
16273;DHT22;8244;50.044;9.006;2022-09-03T21:51:34;17.60;99.90
16273;DHT22;8244;50.044;9.006;2022-09-03T21:56:51;17.50;99.90
16273;DHT22;8244;50.044;9.006;2022-09-03T22:02:01;17.40;99.90
16273;DHT22;8244;50.044;9.006;2022-09-03T22:07:10;17.30;99.90
16273;DHT22;8244;50.044;9.006;2022-09-03T22:12:20;17.20;99.90
16273;DHT22;8244;50.044;9.006;2022-09-03T22:17:31;17.20;99.90
16273;DHT22;8244;50.044;9.006;2022-09-03T22:22:41;17.10;99.90
16273;DHT22;8244;50.044;9.006;2022-09-03T22:27:50;16.90;99.90
16273;DHT22;8244;50.044;9.006;2022-09-03T22:33:04;16.80;99.90
16273;DHT22;8244;50.044;9.006;2022-09-03T22:38:27;16.70;99.90
16273;DHT22;8244;50.044;9.006;2022-09-03T22:43:37;16.60;99.90
16273;DHT22;8244;50.044;9.006;2022-09-03T22:48:56;16.50;99.90
16273;DHT22;8244;50.044;9.006;2022-09-03T22:54:12;16.40;99.90
16273;DHT22;8244;50.044;9.006;2022-09-03T22:59:20;16.30;99.90
16273;DHT22;8244;50.044;9.006;2022-09-03T23:04:28;16.30;99.90
16273;DHT22;8244;50.044;9.006;2022-09-03T23:09:35;16.20;99.90
16273;DHT22;8244;50.044;9.006;2022-09-03T23:14:43;16.10;99.90
16273;DHT22;8244;50.044;9.006;2022-09-03T23:19:53;16.00;99.90
16273;DHT22;8244;50.044;9.006;2022-09-03T23:25:00;15.90;99.90
16273;DHT22;8244;50.044;9.006;2022-09-03T23:30:05;15.80;99.90
16273;DHT22;8244;50.044;9.006;2022-09-03T23:35:10;15.80;99.90
16273;DHT22;8244;50.044;9.006;2022-09-03T23:45:40;15.60;99.90
16273;DHT22;8244;50.044;9.006;2022-09-03T23:50:49;15.50;99.90
16273;DHT22;8244;50.044;9.006;2022-09-03T23:56:06;15.50;99.90
